sensor_id;sensor_type;location;lat;lon;timestamp;P1;durP1;ratioP1;P2;durP2;ratioP2
26612;SDS011;14248;57.652;11.908;2023-05-28T00:02:22;11.95;;;3.30;;
26612;SDS011;14248;57.652;11.908;2023-05-28T00:04:49;10.43;;;3.55;;
26612;SDS011;14248;57.652;11.908;2023-05-28T00:07:15;13.00;;;3.00;;
26612;SDS011;14248;57.652;11.908;2023-05-28T00:09:41;10.93;;;3.60;;
26612;SDS011;14248;57.652;11.908;2023-05-28T00:12:07;11.32;;;3.92;;
26612;SDS011;14248;57.652;11.908;2023-05-28T00:14:34;14.52;;;3.67;;
26612;SDS011;14248;57.652;11.908;2023-05-28T00:17:00;13.73;;;4.05;;
26612;SDS011;14248;57.652;11.908;2023-05-28T00:19:26;13.35;;;3.75;;
26612;SDS011;14248;57.652;11.908;2023-05-28T00:21:52;13.13;;;4.25;;
26612;SDS011;14248;57.652;11.908;2023-05-28T00:24:18;11.10;;;3.53;;
26612;SDS011;14248;57.652;11.908;2023-05-28T00:26:44;10.75;;;3.97;;
26612;SDS011;14248;57.652;11.908;2023-05-28T00:29:10;10.15;;;3.55;;
26612;SDS011;14248;57.652;11.908;2023-05-28T00:31:38;11.48;;;3.95;;
26612;SDS011;14248;57.652;11.908;2023-05-28T00:34:04;15.65;;;3.67;;
26612;SDS011;14248;57.652;11.908;2023-05-28T00:36:30;10.07;;;3.80;;
26612;SDS011;14248;57.652;11.908;2023-05-28T00:38:56;14.50;;;4.13;;
26612;SDS011;14248;57.652;11.908;2023-05-28T00:41:24;9.80;;;3.90;;
26612;SDS011;14248;57.652;11.908;2023-05-28T00:43:50;10.68;;;3.70;;
26612;SDS011;14248;57.652;11.908;2023-05-28T00:46:17;12.00;;;3.80;;
26612;SDS011;14248;57.652;11.908;2023-05-28T00:48:44;10.48;;;3.70;;
26612;SDS011;14248;57.652;11.908;2023-05-28T00:51:10;14.27;;;4.55;;
26612;SDS011;14248;57.652;11.908;2023-05-28T00:53:37;11.65;;;3.75;;
26612;SDS011;14248;57.652;11.908;2023-05-28T00:56:03;11.38;;;3.78;;
26612;SDS011;14248;57.652;11.908;2023-05-28T00:58:30;13.50;;;3.83;;
26612;SDS011;14248;57.652;11.908;2023-05-28T01:00:56;16.70;;;4.18;;
26612;SDS011;14248;57.652;11.908;2023-05-28T01:03:22;15.55;;;4.32;;
26612;SDS011;14248;57.652;11.908;2023-05-28T01:05:48;13.10;;;3.65;;
26612;SDS011;14248;57.652;11.908;2023-05-28T01:08:16;16.30;;;4.15;;
26612;SDS011;14248;57.652;11.908;2023-05-28T01:10:42;16.33;;;4.75;;
26612;SDS011;14248;57.652;11.908;2023-05-28T01:13:08;11.55;;;3.53;;
26612;SDS011;14248;57.652;11.908;2023-05-28T01:15:34;11.10;;;3.72;;
26612;SDS011;14248;57.652;11.908;2023-05-28T01:18:02;13.07;;;4.28;;
26612;SDS011;14248;57.652;11.908;2023-05-28T01:20:29;12.82;;;4.10;;
26612;SDS011;14248;57.652;11.908;2023-05-28T01:23:00;14.10;;;3.72;;
26612;SDS011;14248;57.652;11.908;2023-05-28T01:25:29;13.77;;;3.60;;
26612;SDS011;14248;57.652;11.908;2023-05-28T01:27:56;8.50;;;3.35;;
26612;SDS011;14248;57.652;11.908;2023-05-28T01:30:22;13.60;;;3.42;;
26612;SDS011;14248;57.652;11.908;2023-05-28T01:32:48;16.55;;;4.22;;
26612;SDS011;14248;57.652;11.908;2023-05-28T01:35:15;12.35;;;3.47;;
26612;SDS011;14248;57.652;11.908;2023-05-28T01:37:43;9.05;;;3.53;;
26612;SDS011;14248;57.652;11.908;2023-05-28T01:40:10;14.38;;;3.85;;
26612;SDS011;14248;57.652;11.908;2023-05-28T01:42:37;12.00;;;3.75;;
26612;SDS011;14248;57.652;11.908;2023-05-28T01:45:03;17.38;;;4.50;;
26612;SDS011;14248;57.652;11.908;2023-05-28T01:47:30;11.75;;;3.92;;
26612;SDS011;14248;57.652;11.908;2023-05-28T01:49:57;11.73;;;3.90;;
26612;SDS011;14248;57.652;11.908;2023-05-28T01:52:23;13.05;;;3.90;;
26612;SDS011;14248;57.652;11.908;2023-05-28T01:54:49;11.80;;;3.55;;
26612;SDS011;14248;57.652;11.908;2023-05-28T01:57:15;16.80;;;3.88;;
26612;SDS011;14248;57.652;11.908;2023-05-28T01:59:41;9.57;;;4.05;;
26612;SDS011;14248;57.652;11.908;2023-05-28T02:02:07;12.88;;;3.80;;
26612;SDS011;14248;57.652;11.908;2023-05-28T02:04:33;9.55;;;3.45;;
26612;SDS011;14248;57.652;11.908;2023-05-28T02:06:59;6.95;;;3.08;;
26612;SDS011;14248;57.652;11.908;2023-05-28T02:09:25;10.70;;;3.08;;
26612;SDS011;14248;57.652;11.908;2023-05-28T02:11:51;8.93;;;3.58;;
26612;SDS011;14248;57.652;11.908;2023-05-28T02:14:17;10.13;;;2.65;;
26612;SDS011;14248;57.652;11.908;2023-05-28T02:16:46;11.57;;;3.17;;
26612;SDS011;14248;57.652;11.908;2023-05-28T02:19:13;12.35;;;3.50;;
26612;SDS011;14248;57.652;11.908;2023-05-28T02:21:39;16.02;;;3.45;;
26612;SDS011;14248;57.652;11.908;2023-05-28T02:24:05;13.15;;;3.72;;
26612;SDS011;14248;57.652;11.908;2023-05-28T02:26:32;10.40;;;3.20;;
26612;SDS011;14248;57.652;11.908;2023-05-28T02:28:58;7.72;;;2.95;;
26612;SDS011;14248;57.652;11.908;2023-05-28T02:31:24;9.57;;;3.13;;
26612;SDS011;14248;57.652;11.908;2023-05-28T02:33:51;10.50;;;3.47;;
26612;SDS011;14248;57.652;11.908;2023-05-28T02:36:19;12.10;;;3.17;;
26612;SDS011;14248;57.652;11.908;2023-05-28T02:38:46;12.27;;;3.63;;
26612;SDS011;14248;57.652;11.908;2023-05-28T02:41:12;14.10;;;3.33;;
26612;SDS011;14248;57.652;11.908;2023-05-28T02:43:38;9.68;;;2.97;;
26612;SDS011;14248;57.652;11.908;2023-05-28T02:46:04;14.50;;;3.42;;
26612;SDS011;14248;57.652;11.908;2023-05-28T02:48:30;13.52;;;4.10;;
26612;SDS011;14248;57.652;11.908;2023-05-28T02:50:56;15.68;;;3.70;;
26612;SDS011;14248;57.652;11.908;2023-05-28T02:53:23;13.65;;;3.45;;
26612;SDS011;14248;57.652;11.908;2023-05-28T02:55:49;12.40;;;3.20;;
26612;SDS011;14248;57.652;11.908;2023-05-28T02:58:15;11.13;;;3.08;;
26612;SDS011;14248;57.652;11.908;2023-05-28T03:00:42;13.98;;;3.08;;
26612;SDS011;14248;57.652;11.908;2023-05-28T03:03:08;11.27;;;2.60;;
26612;SDS011;14248;57.652;11.908;2023-05-28T03:05:34;7.35;;;2.30;;
26612;SDS011;14248;57.652;11.908;2023-05-28T03:08:02;10.85;;;2.28;;
26612;SDS011;14248;57.652;11.908;2023-05-28T03:10:28;8.77;;;2.28;;
26612;SDS011;14248;57.652;11.908;2023-05-28T03:12:54;10.43;;;2.30;;
26612;SDS011;14248;57.652;11.908;2023-05-28T03:15:20;7.13;;;2.20;;
26612;SDS011;14248;57.652;11.908;2023-05-28T03:17:46;8.40;;;2.05;;
26612;SDS011;14248;57.652;11.908;2023-05-28T03:20:13;6.32;;;2.25;;
26612;SDS011;14248;57.652;11.908;2023-05-28T03:22:40;4.20;;;1.80;;
26612;SDS011;14248;57.652;11.908;2023-05-28T03:25:06;7.43;;;2.42;;
26612;SDS011;14248;57.652;11.908;2023-05-28T03:27:33;9.05;;;2.80;;
26612;SDS011;14248;57.652;11.908;2023-05-28T03:29:59;6.05;;;2.00;;
26612;SDS011;14248;57.652;11.908;2023-05-28T03:32:26;9.35;;;2.50;;
26612;SDS011;14248;57.652;11.908;2023-05-28T03:34:52;7.03;;;2.40;;
26612;SDS011;14248;57.652;11.908;2023-05-28T03:37:18;8.68;;;2.60;;
26612;SDS011;14248;57.652;11.908;2023-05-28T03:39:44;6.30;;;2.50;;
26612;SDS011;14248;57.652;11.908;2023-05-28T03:42:10;8.00;;;2.40;;
26612;SDS011;14248;57.652;11.908;2023-05-28T03:44:36;7.45;;;2.47;;
26612;SDS011;14248;57.652;11.908;2023-05-28T03:47:02;7.40;;;2.53;;
26612;SDS011;14248;57.652;11.908;2023-05-28T03:49:28;6.82;;;2.13;;
26612;SDS011;14248;57.652;11.908;2023-05-28T03:51:54;8.57;;;2.20;;
26612;SDS011;14248;57.652;11.908;2023-05-28T03:54:20;6.45;;;2.20;;
26612;SDS011;14248;57.652;11.908;2023-05-28T03:56:47;12.73;;;2.90;;
26612;SDS011;14248;57.652;11.908;2023-05-28T03:59:13;11.48;;;3.30;;
26612;SDS011;14248;57.652;11.908;2023-05-28T04:01:39;10.15;;;2.70;;
26612;SDS011;14248;57.652;11.908;2023-05-28T04:04:05;8.43;;;2.85;;
26612;SDS011;14248;57.652;11.908;2023-05-28T04:06:32;5.70;;;2.15;;
26612;SDS011;14248;57.652;11.908;2023-05-28T04:08:58;8.13;;;2.45;;
26612;SDS011;14248;57.652;11.908;2023-05-28T04:11:24;6.43;;;2.22;;
26612;SDS011;14248;57.652;11.908;2023-05-28T04:13:55;7.63;;;2.38;;
26612;SDS011;14248;57.652;11.908;2023-05-28T04:16:21;8.00;;;2.75;;
26612;SDS011;14248;57.652;11.908;2023-05-28T04:18:51;8.07;;;2.63;;
26612;SDS011;14248;57.652;11.908;2023-05-28T04:21:18;9.07;;;2.45;;
26612;SDS011;14248;57.652;11.908;2023-05-28T04:23:44;8.10;;;2.75;;
26612;SDS011;14248;57.652;11.908;2023-05-28T04:26:10;7.22;;;2.60;;
26612;SDS011;14248;57.652;11.908;2023-05-28T04:28:36;7.80;;;2.72;;
26612;SDS011;14248;57.652;11.908;2023-05-28T04:31:02;12.23;;;2.72;;
26612;SDS011;14248;57.652;11.908;2023-05-28T04:33:28;7.75;;;2.70;;
26612;SDS011;14248;57.652;11.908;2023-05-28T04:35:55;6.53;;;2.55;;
26612;SDS011;14248;57.652;11.908;2023-05-28T04:38:22;7.13;;;2.70;;
26612;SDS011;14248;57.652;11.908;2023-05-28T04:40:48;6.53;;;2.30;;
26612;SDS011;14248;57.652;11.908;2023-05-28T04:43:15;7.32;;;2.50;;
26612;SDS011;14248;57.652;11.908;2023-05-28T04:45:41;13.70;;;3.00;;
26612;SDS011;14248;57.652;11.908;2023-05-28T04:48:07;8.88;;;2.28;;
26612;SDS011;14248;57.652;11.908;2023-05-28T04:50:33;9.70;;;2.67;;
26612;SDS011;14248;57.652;11.908;2023-05-28T04:52:59;8.48;;;2.67;;
26612;SDS011;14248;57.652;11.908;2023-05-28T04:55:26;7.65;;;2.25;;
26612;SDS011;14248;57.652;11.908;2023-05-28T04:57:52;6.05;;;2.20;;
26612;SDS011;14248;57.652;11.908;2023-05-28T05:00:18;10.68;;;2.30;;
26612;SDS011;14248;57.652;11.908;2023-05-28T05:02:45;7.18;;;1.95;;
26612;SDS011;14248;57.652;11.908;2023-05-28T05:05:11;7.60;;;1.98;;
26612;SDS011;14248;57.652;11.908;2023-05-28T05:07:37;8.88;;;2.22;;
26612;SDS011;14248;57.652;11.908;2023-05-28T05:10:10;5.07;;;1.60;;
26612;SDS011;14248;57.652;11.908;2023-05-28T05:12:36;4.22;;;1.90;;
26612;SDS011;14248;57.652;11.908;2023-05-28T05:15:03;11.45;;;2.30;;
26612;SDS011;14248;57.652;11.908;2023-05-28T05:17:30;7.57;;;2.58;;
26612;SDS011;14248;57.652;11.908;2023-05-28T05:19:57;7.97;;;2.17;;
26612;SDS011;14248;57.652;11.908;2023-05-28T05:22:23;6.00;;;2.22;;
26612;SDS011;14248;57.652;11.908;2023-05-28T05:24:49;6.28;;;2.40;;
26612;SDS011;14248;57.652;11.908;2023-05-28T05:27:15;3.78;;;2.00;;
26612;SDS011;14248;57.652;11.908;2023-05-28T05:29:42;9.63;;;2.53;;
26612;SDS011;14248;57.652;11.908;2023-05-28T05:32:09;8.63;;;2.03;;
26612;SDS011;14248;57.652;11.908;2023-05-28T05:34:35;7.68;;;2.28;;
26612;SDS011;14248;57.652;11.908;2023-05-28T05:37:01;6.93;;;1.85;;
26612;SDS011;14248;57.652;11.908;2023-05-28T05:39:27;6.47;;;2.17;;
26612;SDS011;14248;57.652;11.908;2023-05-28T05:41:53;15.00;;;2.70;;
26612;SDS011;14248;57.652;11.908;2023-05-28T05:44:19;8.63;;;2.53;;
26612;SDS011;14248;57.652;11.908;2023-05-28T05:46:46;8.45;;;2.47;;
26612;SDS011;14248;57.652;11.908;2023-05-28T05:49:12;7.35;;;2.08;;
26612;SDS011;14248;57.652;11.908;2023-05-28T05:51:38;9.73;;;2.85;;
26612;SDS011;14248;57.652;11.908;2023-05-28T05:54:04;10.02;;;2.33;;
26612;SDS011;14248;57.652;11.908;2023-05-28T05:56:30;14.85;;;2.85;;
26612;SDS011;14248;57.652;11.908;2023-05-28T05:58:57;11.02;;;2.10;;
26612;SDS011;14248;57.652;11.908;2023-05-28T06:01:23;11.82;;;2.60;;
26612;SDS011;14248;57.652;11.908;2023-05-28T06:03:49;11.68;;;2.85;;
26612;SDS011;14248;57.652;11.908;2023-05-28T06:06:15;12.38;;;2.60;;
26612;SDS011;14248;57.652;11.908;2023-05-28T06:08:42;13.07;;;2.75;;
26612;SDS011;14248;57.652;11.908;2023-05-28T06:11:08;12.88;;;2.03;;
26612;SDS011;14248;57.652;11.908;2023-05-28T06:13:36;13.93;;;3.00;;
26612;SDS011;14248;57.652;11.908;2023-05-28T06:16:02;12.60;;;2.47;;
26612;SDS011;14248;57.652;11.908;2023-05-28T06:18:29;18.00;;;2.40;;
26612;SDS011;14248;57.652;11.908;2023-05-28T06:20:55;13.90;;;3.25;;
26612;SDS011;14248;57.652;11.908;2023-05-28T06:23:22;12.43;;;2.78;;
26612;SDS011;14248;57.652;11.908;2023-05-28T06:25:48;9.45;;;2.25;;
26612;SDS011;14248;57.652;11.908;2023-05-28T06:28:14;10.00;;;2.67;;
26612;SDS011;14248;57.652;11.908;2023-05-28T06:30:40;10.65;;;2.72;;
26612;SDS011;14248;57.652;11.908;2023-05-28T06:33:06;11.35;;;2.65;;
26612;SDS011;14248;57.652;11.908;2023-05-28T06:35:33;10.02;;;2.42;;
26612;SDS011;14248;57.652;11.908;2023-05-28T06:37:59;11.23;;;2.70;;
26612;SDS011;14248;57.652;11.908;2023-05-28T06:40:25;7.88;;;2.28;;
26612;SDS011;14248;57.652;11.908;2023-05-28T06:42:51;9.57;;;2.35;;
26612;SDS011;14248;57.652;11.908;2023-05-28T06:45:17;8.00;;;2.38;;
26612;SDS011;14248;57.652;11.908;2023-05-28T06:47:44;10.15;;;2.38;;
26612;SDS011;14248;57.652;11.908;2023-05-28T06:50:10;8.57;;;2.35;;
26612;SDS011;14248;57.652;11.908;2023-05-28T06:52:36;13.25;;;2.70;;
26612;SDS011;14248;57.652;11.908;2023-05-28T06:55:03;10.57;;;2.25;;
26612;SDS011;14248;57.652;11.908;2023-05-28T06:57:33;11.48;;;2.60;;
26612;SDS011;14248;57.652;11.908;2023-05-28T07:00:04;11.05;;;2.58;;
26612;SDS011;14248;57.652;11.908;2023-05-28T07:02:38;17.67;;;2.95;;
26612;SDS011;14248;57.652;11.908;2023-05-28T07:05:05;12.43;;;2.03;;
26612;SDS011;14248;57.652;11.908;2023-05-28T07:07:31;11.07;;;2.58;;
26612;SDS011;14248;57.652;11.908;2023-05-28T07:09:58;13.30;;;3.03;;
26612;SDS011;14248;57.652;11.908;2023-05-28T07:12:24;12.50;;;2.65;;
26612;SDS011;14248;57.652;11.908;2023-05-28T07:14:50;12.73;;;2.80;;
26612;SDS011;14248;57.652;11.908;2023-05-28T07:17:16;11.00;;;2.15;;
26612;SDS011;14248;57.652;11.908;2023-05-28T07:19:42;10.45;;;2.83;;
26612;SDS011;14248;57.652;11.908;2023-05-28T07:22:08;9.07;;;2.45;;
26612;SDS011;14248;57.652;11.908;2023-05-28T07:24:34;9.82;;;2.58;;
26612;SDS011;14248;57.652;11.908;2023-05-28T07:27:00;10.73;;;2.60;;
26612;SDS011;14248;57.652;11.908;2023-05-28T07:29:26;8.90;;;2.53;;
26612;SDS011;14248;57.652;11.908;2023-05-28T07:31:52;15.50;;;3.38;;
26612;SDS011;14248;57.652;11.908;2023-05-28T07:34:18;12.82;;;2.38;;
26612;SDS011;14248;57.652;11.908;2023-05-28T07:36:44;11.43;;;2.47;;
26612;SDS011;14248;57.652;11.908;2023-05-28T07:39:10;11.77;;;2.60;;
26612;SDS011;14248;57.652;11.908;2023-05-28T07:41:36;10.95;;;2.63;;
26612;SDS011;14248;57.652;11.908;2023-05-28T07:44:02;12.52;;;2.90;;
26612;SDS011;14248;57.652;11.908;2023-05-28T07:46:29;9.30;;;2.30;;
26612;SDS011;14248;57.652;11.908;2023-05-28T07:48:55;10.80;;;2.78;;
26612;SDS011;14248;57.652;11.908;2023-05-28T07:51:21;13.32;;;2.60;;
26612;SDS011;14248;57.652;11.908;2023-05-28T07:53:47;10.60;;;2.55;;
26612;SDS011;14248;57.652;11.908;2023-05-28T07:56:13;11.00;;;2.38;;
26612;SDS011;14248;57.652;11.908;2023-05-28T07:58:43;6.60;;;2.03;;
26612;SDS011;14248;57.652;11.908;2023-05-28T08:01:10;12.30;;;2.63;;
26612;SDS011;14248;57.652;11.908;2023-05-28T08:03:36;9.35;;;2.30;;
26612;SDS011;14248;57.652;11.908;2023-05-28T08:06:03;10.18;;;2.05;;
26612;SDS011;14248;57.652;11.908;2023-05-28T08:08:29;11.15;;;2.20;;
26612;SDS011;14248;57.652;11.908;2023-05-28T08:10:55;13.27;;;2.45;;
26612;SDS011;14248;57.652;11.908;2023-05-28T08:13:21;17.00;;;2.58;;
26612;SDS011;14248;57.652;11.908;2023-05-28T08:15:47;13.07;;;2.28;;
26612;SDS011;14248;57.652;11.908;2023-05-28T08:18:13;9.75;;;2.85;;
26612;SDS011;14248;57.652;11.908;2023-05-28T08:20:40;16.02;;;3.38;;
26612;SDS011;14248;57.652;11.908;2023-05-28T08:23:06;14.07;;;2.35;;
26612;SDS011;14248;57.652;11.908;2023-05-28T08:25:32;14.10;;;2.30;;
26612;SDS011;14248;57.652;11.908;2023-05-28T08:27:58;10.73;;;2.17;;
26612;SDS011;14248;57.652;11.908;2023-05-28T08:30:25;9.60;;;1.92;;
26612;SDS011;14248;57.652;11.908;2023-05-28T08:32:51;11.82;;;2.47;;
26612;SDS011;14248;57.652;11.908;2023-05-28T08:35:17;10.90;;;2.55;;
26612;SDS011;14248;57.652;11.908;2023-05-28T08:37:43;13.63;;;2.60;;
26612;SDS011;14248;57.652;11.908;2023-05-28T08:40:10;9.80;;;2.58;;
26612;SDS011;14248;57.652;11.908;2023-05-28T08:42:37;15.35;;;2.97;;
26612;SDS011;14248;57.652;11.908;2023-05-28T08:45:03;13.93;;;2.67;;
26612;SDS011;14248;57.652;11.908;2023-05-28T08:47:32;16.20;;;2.83;;
26612;SDS011;14248;57.652;11.908;2023-05-28T08:50:04;10.63;;;2.50;;
26612;SDS011;14248;57.652;11.908;2023-05-28T08:52:31;11.25;;;2.75;;
26612;SDS011;14248;57.652;11.908;2023-05-28T08:54:58;15.60;;;2.50;;
26612;SDS011;14248;57.652;11.908;2023-05-28T08:57:28;9.93;;;2.20;;
26612;SDS011;14248;57.652;11.908;2023-05-28T08:59:54;16.08;;;2.80;;
26612;SDS011;14248;57.652;11.908;2023-05-28T09:02:24;14.90;;;2.40;;
26612;SDS011;14248;57.652;11.908;2023-05-28T09:04:50;10.38;;;2.53;;
26612;SDS011;14248;57.652;11.908;2023-05-28T09:07:17;12.57;;;2.50;;
26612;SDS011;14248;57.652;11.908;2023-05-28T09:09:43;17.45;;;3.33;;
26612;SDS011;14248;57.652;11.908;2023-05-28T09:12:09;11.68;;;2.30;;
26612;SDS011;14248;57.652;11.908;2023-05-28T09:14:39;14.10;;;2.58;;
26612;SDS011;14248;57.652;11.908;2023-05-28T09:17:06;9.38;;;2.60;;
26612;SDS011;14248;57.652;11.908;2023-05-28T09:19:34;13.40;;;2.28;;
26612;SDS011;14248;57.652;11.908;2023-05-28T09:22:00;9.50;;;1.85;;
26612;SDS011;14248;57.652;11.908;2023-05-28T09:24:28;17.50;;;2.60;;
26612;SDS011;14248;57.652;11.908;2023-05-28T09:26:54;7.28;;;1.73;;
26612;SDS011;14248;57.652;11.908;2023-05-28T09:29:22;7.97;;;2.22;;
26612;SDS011;14248;57.652;11.908;2023-05-28T09:31:58;11.43;;;2.40;;
26612;SDS011;14248;57.652;11.908;2023-05-28T09:34:26;13.90;;;2.58;;
26612;SDS011;14248;57.652;11.908;2023-05-28T09:36:52;12.43;;;2.40;;
26612;SDS011;14248;57.652;11.908;2023-05-28T09:39:19;8.90;;;1.88;;
26612;SDS011;14248;57.652;11.908;2023-05-28T09:41:57;9.80;;;1.95;;
26612;SDS011;14248;57.652;11.908;2023-05-28T09:44:29;9.93;;;2.22;;
26612;SDS011;14248;57.652;11.908;2023-05-28T09:46:55;11.32;;;2.00;;
26612;SDS011;14248;57.652;11.908;2023-05-28T09:49:21;9.13;;;2.13;;
26612;SDS011;14248;57.652;11.908;2023-05-28T09:51:47;9.38;;;1.88;;
26612;SDS011;14248;57.652;11.908;2023-05-28T09:54:16;10.48;;;1.83;;
26612;SDS011;14248;57.652;11.908;2023-05-28T09:56:43;14.95;;;2.30;;
26612;SDS011;14248;57.652;11.908;2023-05-28T09:59:11;12.85;;;1.67;;
26612;SDS011;14248;57.652;11.908;2023-05-28T10:01:38;7.90;;;1.48;;
26612;SDS011;14248;57.652;11.908;2023-05-28T10:04:08;8.13;;;2.00;;
26612;SDS011;14248;57.652;11.908;2023-05-28T10:06:35;8.98;;;1.85;;
26612;SDS011;14248;57.652;11.908;2023-05-28T10:09:03;7.03;;;1.65;;
26612;SDS011;14248;57.652;11.908;2023-05-28T10:11:38;7.55;;;1.50;;
26612;SDS011;14248;57.652;11.908;2023-05-28T10:14:05;9.32;;;1.85;;
26612;SDS011;14248;57.652;11.908;2023-05-28T10:16:32;8.50;;;1.63;;
26612;SDS011;14248;57.652;11.908;2023-05-28T10:18:58;11.40;;;1.83;;
26612;SDS011;14248;57.652;11.908;2023-05-28T10:21:25;9.07;;;2.00;;
26612;SDS011;14248;57.652;11.908;2023-05-28T10:23:51;10.50;;;1.80;;
26612;SDS011;14248;57.652;11.908;2023-05-28T10:26:17;7.38;;;1.60;;
26612;SDS011;14248;57.652;11.908;2023-05-28T10:28:44;9.13;;;2.13;;
26612;SDS011;14248;57.652;11.908;2023-05-28T10:31:10;9.85;;;1.70;;
26612;SDS011;14248;57.652;11.908;2023-05-28T10:33:42;7.82;;;1.40;;
26612;SDS011;14248;57.652;11.908;2023-05-28T10:36:10;11.25;;;2.38;;
26612;SDS011;14248;57.652;11.908;2023-05-28T10:38:50;11.23;;;1.77;;
26612;SDS011;14248;57.652;11.908;2023-05-28T10:41:22;8.18;;;1.77;;
26612;SDS011;14248;57.652;11.908;2023-05-28T10:43:48;7.38;;;2.05;;
26612;SDS011;14248;57.652;11.908;2023-05-28T10:46:19;10.48;;;2.30;;
26612;SDS011;14248;57.652;11.908;2023-05-28T10:49:04;5.13;;;1.50;;
26612;SDS011;14248;57.652;11.908;2023-05-28T10:54:39;8.95;;;1.75;;
26612;SDS011;14248;57.652;11.908;2023-05-28T10:59:45;8.90;;;1.63;;
26612;SDS011;14248;57.652;11.908;2023-05-28T11:02:12;7.18;;;1.92;;
26612;SDS011;14248;57.652;11.908;2023-05-28T11:04:41;7.93;;;2.08;;
26612;SDS011;14248;57.652;11.908;2023-05-28T11:07:07;9.25;;;1.63;;
26612;SDS011;14248;57.652;11.908;2023-05-28T11:09:34;5.90;;;1.63;;
26612;SDS011;14248;57.652;11.908;2023-05-28T11:12:01;9.35;;;1.58;;
26612;SDS011;14248;57.652;11.908;2023-05-28T11:14:37;6.75;;;1.65;;
26612;SDS011;14248;57.652;11.908;2023-05-28T11:17:10;9.07;;;2.13;;
26612;SDS011;14248;57.652;11.908;2023-05-28T11:19:46;8.63;;;1.83;;
26612;SDS011;14248;57.652;11.908;2023-05-28T11:22:12;9.43;;;1.75;;
26612;SDS011;14248;57.652;11.908;2023-05-28T11:27:38;9.30;;;2.00;;
26612;SDS011;14248;57.652;11.908;2023-05-28T11:30:09;8.38;;;1.60;;
26612;SDS011;14248;57.652;11.908;2023-05-28T11:32:36;8.13;;;1.55;;
26612;SDS011;14248;57.652;11.908;2023-05-28T11:35:02;15.15;;;2.08;;
26612;SDS011;14248;57.652;11.908;2023-05-28T11:37:33;6.85;;;1.67;;
26612;SDS011;14248;57.652;11.908;2023-05-28T11:40:00;6.65;;;1.85;;
26612;SDS011;14248;57.652;11.908;2023-05-28T11:42:27;8.35;;;1.60;;
26612;SDS011;14248;57.652;11.908;2023-05-28T11:44:53;12.55;;;2.22;;
26612;SDS011;14248;57.652;11.908;2023-05-28T11:47:20;8.38;;;1.90;;
26612;SDS011;14248;57.652;11.908;2023-05-28T11:49:47;12.07;;;2.00;;
26612;SDS011;14248;57.652;11.908;2023-05-28T11:52:23;8.57;;;1.58;;
26612;SDS011;14248;57.652;11.908;2023-05-28T11:55:08;7.70;;;1.63;;
26612;SDS011;14248;57.652;11.908;2023-05-28T11:57:34;11.27;;;2.03;;
26612;SDS011;14248;57.652;11.908;2023-05-28T12:00:11;8.52;;;1.88;;
26612;SDS011;14248;57.652;11.908;2023-05-28T12:02:44;9.98;;;1.80;;
26612;SDS011;14248;57.652;11.908;2023-05-28T12:05:11;7.03;;;1.50;;
26612;SDS011;14248;57.652;11.908;2023-05-28T12:07:37;10.10;;;2.00;;
26612;SDS011;14248;57.652;11.908;2023-05-28T12:10:07;6.75;;;1.35;;
26612;SDS011;14248;57.652;11.908;2023-05-28T12:12:55;7.10;;;1.63;;
26612;SDS011;14248;57.652;11.908;2023-05-28T12:15:22;10.02;;;1.92;;
26612;SDS011;14248;57.652;11.908;2023-05-28T12:17:51;7.30;;;1.55;;
26612;SDS011;14248;57.652;11.908;2023-05-28T12:22:44;10.27;;;2.00;;
26612;SDS011;14248;57.652;11.908;2023-05-28T12:25:10;11.80;;;2.10;;
26612;SDS011;14248;57.652;11.908;2023-05-28T12:27:37;14.00;;;2.58;;
26612;SDS011;14248;57.652;11.908;2023-05-28T12:30:03;5.03;;;1.45;;
26612;SDS011;14248;57.652;11.908;2023-05-28T12:32:29;10.88;;;2.42;;
26612;SDS011;14248;57.652;11.908;2023-05-28T12:34:55;10.48;;;2.10;;
26612;SDS011;14248;57.652;11.908;2023-05-28T12:37:23;7.00;;;1.50;;
26612;SDS011;14248;57.652;11.908;2023-05-28T12:39:49;7.50;;;1.95;;
26612;SDS011;14248;57.652;11.908;2023-05-28T12:42:15;6.20;;;1.73;;
26612;SDS011;14248;57.652;11.908;2023-05-28T12:44:42;10.50;;;2.40;;
26612;SDS011;14248;57.652;11.908;2023-05-28T12:47:08;10.98;;;2.20;;
26612;SDS011;14248;57.652;11.908;2023-05-28T12:49:34;4.95;;;1.42;;
26612;SDS011;14248;57.652;11.908;2023-05-28T12:52:00;7.50;;;1.73;;
26612;SDS011;14248;57.652;11.908;2023-05-28T12:54:26;6.00;;;1.45;;
26612;SDS011;14248;57.652;11.908;2023-05-28T12:56:53;12.13;;;1.92;;
26612;SDS011;14248;57.652;11.908;2023-05-28T12:59:22;9.20;;;1.70;;
26612;SDS011;14248;57.652;11.908;2023-05-28T13:01:49;9.73;;;1.98;;
26612;SDS011;14248;57.652;11.908;2023-05-28T13:04:15;6.22;;;1.95;;
26612;SDS011;14248;57.652;11.908;2023-05-28T13:06:42;6.70;;;1.58;;
26612;SDS011;14248;57.652;11.908;2023-05-28T13:09:08;9.73;;;1.75;;
26612;SDS011;14248;57.652;11.908;2023-05-28T13:11:37;9.60;;;2.53;;
26612;SDS011;14248;57.652;11.908;2023-05-28T13:14:04;11.10;;;2.28;;
26612;SDS011;14248;57.652;11.908;2023-05-28T13:16:30;6.43;;;1.77;;
26612;SDS011;14248;57.652;11.908;2023-05-28T13:18:56;7.15;;;1.75;;
26612;SDS011;14248;57.652;11.908;2023-05-28T13:21:22;6.70;;;1.92;;
26612;SDS011;14248;57.652;11.908;2023-05-28T13:23:48;8.90;;;2.35;;
26612;SDS011;14248;57.652;11.908;2023-05-28T13:26:14;9.07;;;2.22;;
26612;SDS011;14248;57.652;11.908;2023-05-28T13:28:40;8.70;;;2.05;;
26612;SDS011;14248;57.652;11.908;2023-05-28T13:31:07;8.48;;;1.83;;
26612;SDS011;14248;57.652;11.908;2023-05-28T13:33:33;7.13;;;2.03;;
26612;SDS011;14248;57.652;11.908;2023-05-28T13:35:59;9.07;;;1.80;;
26612;SDS011;14248;57.652;11.908;2023-05-28T13:38:25;13.60;;;1.90;;
26612;SDS011;14248;57.652;11.908;2023-05-28T13:40:50;6.55;;;1.77;;
26612;SDS011;14248;57.652;11.908;2023-05-28T13:43:17;11.80;;;2.13;;
26612;SDS011;14248;57.652;11.908;2023-05-28T13:45:43;9.27;;;2.08;;
26612;SDS011;14248;57.652;11.908;2023-05-28T13:48:09;5.82;;;1.85;;
26612;SDS011;14248;57.652;11.908;2023-05-28T13:50:35;9.68;;;1.83;;
26612;SDS011;14248;57.652;11.908;2023-05-28T13:53:01;5.20;;;1.80;;
26612;SDS011;14248;57.652;11.908;2023-05-28T13:55:28;10.38;;;2.05;;
26612;SDS011;14248;57.652;11.908;2023-05-28T13:57:54;10.65;;;2.42;;
26612;SDS011;14248;57.652;11.908;2023-05-28T14:00:20;6.90;;;1.75;;
26612;SDS011;14248;57.652;11.908;2023-05-28T14:02:46;6.97;;;2.00;;
26612;SDS011;14248;57.652;11.908;2023-05-28T14:05:13;8.05;;;1.90;;
26612;SDS011;14248;57.652;11.908;2023-05-28T14:07:40;9.10;;;2.47;;
26612;SDS011;14248;57.652;11.908;2023-05-28T14:10:06;6.20;;;1.83;;
26612;SDS011;14248;57.652;11.908;2023-05-28T14:12:33;7.13;;;1.73;;
26612;SDS011;14248;57.652;11.908;2023-05-28T14:14:59;6.50;;;1.95;;
26612;SDS011;14248;57.652;11.908;2023-05-28T14:17:26;7.70;;;1.98;;
26612;SDS011;14248;57.652;11.908;2023-05-28T14:19:52;7.15;;;1.67;;
26612;SDS011;14248;57.652;11.908;2023-05-28T14:22:18;8.23;;;1.83;;
26612;SDS011;14248;57.652;11.908;2023-05-28T14:24:44;7.13;;;1.80;;
26612;SDS011;14248;57.652;11.908;2023-05-28T14:27:10;4.78;;;2.10;;
26612;SDS011;14248;57.652;11.908;2023-05-28T14:29:36;7.47;;;2.10;;
26612;SDS011;14248;57.652;11.908;2023-05-28T14:32:03;5.45;;;1.75;;
26612;SDS011;14248;57.652;11.908;2023-05-28T14:34:29;5.07;;;1.60;;
26612;SDS011;14248;57.652;11.908;2023-05-28T14:36:55;5.45;;;1.52;;
26612;SDS011;14248;57.652;11.908;2023-05-28T14:39:21;7.78;;;2.00;;